Time;durP1;ratioP1;P1;durP2;ratioP2;P2;SDS_P1;SDS_P2;PMS_P1;PMS_P2;Temp;Humidity;BMP_temperature;BMP_pressure;BME280_temperature;BME280_humidity;BME280_pressure;Samples;Min_cycle;Max_cycle;Signal;HPM_P1;HPM_P2
2022/05/19 00:02:14;;;;;;;8.80;6.97;;;18.90;60.80;;;;;;5037297;28;20045;-87
2022/05/19 00:04:40;;;;;;;8.40;7.47;;;18.90;60.80;;;;;;5067173;28;20036;-86
2022/05/19 00:07:07;;;;;;;10.00;8.93;;;18.80;61.00;;;;;;5075879;28;20448;-86
2022/05/19 00:09:33;;;;;;;10.95;7.97;;;18.80;61.30;;;;;;5053074;28;20132;-86
2022/05/19 00:12:03;;;;;;;8.63;6.22;;;18.70;61.30;;;;;;5056412;28;20087;-87
2022/05/19 00:14:28;;;;;;;9.38;6.80;;;18.70;61.20;;;;;;5055729;28;20041;-87
2022/05/19 00:16:56;;;;;;;8.98;7.20;;;18.70;61.10;;;;;;5055868;28;20049;-87
2022/05/19 00:19:22;;;;;;;10.70;5.53;;;18.60;61.20;;;;;;5019895;28;20381;-87
2022/05/19 00:21:48;;;;;;;7.43;5.78;;;18.70;61.10;;;;;;5036141;28;20067;-87
2022/05/19 00:24:14;;;;;;;10.45;7.72;;;18.60;60.90;;;;;;5055155;28;20033;-86
2022/05/19 00:26:40;;;;;;;7.03;5.72;;;18.70;61.20;;;;;;5037103;28;20049;-87
2022/05/19 00:29:06;;;;;;;10.48;7.40;;;18.60;61.10;;;;;;5054777;28;20033;-85
2022/05/19 00:31:32;;;;;;;6.88;4.80;;;18.60;61.30;;;;;;5044067;28;20049;-87
2022/05/19 00:33:59;;;;;;;8.27;7.43;;;18.60;61.10;;;;;;5042923;28;20048;-86
2022/05/19 00:36:25;;;;;;;9.52;7.70;;;18.60;61.30;;;;;;5038528;28;20063;-87
2022/05/19 00:38:51;;;;;;;7.78;6.82;;;18.60;61.30;;;;;;5053967;28;20037;-86
2022/05/19 00:41:17;;;;;;;8.13;7.32;;;18.60;61.30;;;;;;5055721;28;20546;-88
2022/05/19 00:43:46;;;;;;;10.45;8.70;;;18.60;61.30;;;;;;5055118;28;20631;-86
2022/05/19 00:46:23;;;;;;;10.38;8.82;;;18.60;61.40;;;;;;5037798;28;20396;-88
2022/05/19 00:48:58;;;;;;;11.98;9.13;;;18.60;61.40;;;;;;5054160;28;20040;-87
2022/05/19 00:51:42;;;;;;;9.88;8.98;;;18.60;61.60;;;;;;5037026;28;20063;-87
2022/05/19 00:54:12;;;;;;;12.80;11.50;;;18.50;61.70;;;;;;5054602;28;20542;-87
2022/05/19 00:57:01;;;;;;;14.00;9.70;;;18.50;61.90;;;;;;5056580;28;20048;-87
2022/05/19 00:59:34;;;;;;;15.15;11.88;;;18.40;62.10;;;;;;5053627;28;20045;-87
2022/05/19 01:02:01;;;;;;;16.67;13.00;;;18.40;62.50;;;;;;5036920;28;20110;-87
2022/05/19 01:04:43;;;;;;;14.45;12.70;;;18.30;62.70;;;;;;5054376;28;20048;-87
2022/05/19 01:07:17;;;;;;;16.67;13.50;;;18.20;63.10;;;;;;5056162;28;20049;-86
2022/05/19 01:09:43;;;;;;;;;;;18.10;63.50;;;;;;5036290;28;20132;-87
2022/05/19 01:12:10;;;;;;;14.38;10.27;;;18.00;63.10;;;;;;5036899;28;20382;-87
2022/05/19 01:14:36;;;;;;;16.08;13.57;;;18.00;63.60;;;;;;5053932;28;20078;-87
2022/05/19 01:17:04;;;;;;;13.77;11.18;;;17.90;63.90;;;;;;5037246;28;20088;-87
2022/05/19 01:19:45;;;;;;;10.15;7.72;;;17.90;64.20;;;;;;5055222;28;20037;-85
2022/05/19 01:22:11;;;;;;;15.95;14.32;;;17.90;64.00;;;;;;5037372;28;20052;-88
2022/05/19 01:24:59;;;;;;;15.00;13.45;;;17.80;64.20;;;;;;5036506;28;20049;-88
2022/05/19 01:27:24;;;;;;;10.82;7.78;;;17.80;64.60;;;;;;5037081;28;20032;-87
2022/05/19 01:29:50;;;;;;;11.98;10.45;;;17.80;64.40;;;;;;5053960;28;20434;-87
2022/05/19 01:32:27;;;;;;;14.25;12.77;;;17.70;64.20;;;;;;5054037;28;20048;-87
2022/05/19 01:34:53;;;;;;;11.57;10.15;;;17.80;64.50;;;;;;5035642;28;20045;-86
2022/05/19 01:37:19;;;;;;;13.27;11.98;;;17.80;64.60;;;;;;5053505;28;20083;-87
2022/05/19 01:40:02;;;;;;;13.93;12.48;;;17.80;64.80;;;;;;5052894;28;20401;-86
2022/05/19 01:42:43;;;;;;;18.17;16.40;;;17.70;64.90;;;;;;5035788;28;20122;-86
2022/05/19 01:45:11;;;;;;;21.95;18.23;;;17.70;65.30;;;;;;5053217;28;20129;-85
2022/05/19 01:47:50;;;;;;;22.00;17.38;;;17.70;65.70;;;;;;5053338;28;20048;-86
2022/05/19 01:50:38;;;;;;;18.20;16.25;;;17.60;65.90;;;;;;5056016;28;20560;-86
2022/05/19 01:53:15;;;;;;;17.73;14.50;;;17.50;66.00;;;;;;5072818;28;20067;-87
2022/05/19 01:55:50;;;;;;;17.45;15.50;;;17.50;66.20;;;;;;5057796;28;20571;-87
2022/05/19 01:58:35;;;;;;;18.05;15.77;;;17.50;66.10;;;;;;5028821;28;20053;-86
2022/05/19 02:01:04;;;;;;;13.05;10.43;;;17.50;66.20;;;;;;5035651;28;20522;-86
2022/05/19 02:03:59;;;;;;;16.05;14.35;;;17.40;65.90;;;;;;5055780;28;20119;-87
2022/05/19 02:06:37;;;;;;;21.92;17.67;;;17.50;65.90;;;;;;5057934;28;20148;-85
2022/05/19 02:09:07;;;;;;;16.05;13.07;;;17.50;66.10;;;;;;5035915;28;20049;-85
2022/05/19 02:11:45;;;;;;;21.38;17.67;;;17.50;66.00;;;;;;5052137;28;20063;-86
2022/05/19 02:14:19;;;;;;;24.05;19.10;;;17.50;66.10;;;;;;5037116;28;20037;-85
2022/05/19 02:16:45;;;;;;;21.73;16.33;;;17.50;66.40;;;;;;5053135;28;20044;-84
2022/05/19 02:19:14;;;;;;;24.27;21.77;;;17.40;66.20;;;;;;5049614;28;20483;-85
2022/05/19 02:21:40;;;;;;;20.23;18.23;;;17.40;66.50;;;;;;5039384;28;20116;-85
2022/05/19 02:24:09;;;;;;;20.33;16.38;;;17.40;66.60;;;;;;5053704;28;20121;-85
2022/05/19 02:26:39;;;;;;;22.15;18.00;;;17.40;66.60;;;;;;5053571;28;20075;-85
2022/05/19 02:29:09;;;;;;;22.17;18.25;;;17.40;66.50;;;;;;5053442;28;20048;-85
2022/05/19 02:31:35;;;;;;;26.02;21.35;;;17.40;66.50;;;;;;5052536;28;20041;-84
2022/05/19 02:34:01;;;;;;;28.25;23.48;;;17.40;66.70;;;;;;5052771;28;20031;-85
2022/05/19 02:36:26;;;;;;;26.52;22.10;;;17.40;66.90;;;;;;5051808;28;20538;-84
2022/05/19 02:38:52;;;;;;;25.65;22.80;;;17.40;67.10;;;;;;5052906;28;20049;-84
2022/05/19 02:41:18;;;;;;;32.08;27.73;;;17.30;67.20;;;;;;5053423;28;20049;-84
2022/05/19 02:43:44;;;;;;;30.95;27.65;;;17.30;67.60;;;;;;5053207;28;20060;-84
2022/05/19 02:46:09;;;;;;;28.42;24.40;;;17.20;68.20;;;;;;5052923;28;20076;-84
2022/05/19 02:48:35;;;;;;;29.48;25.48;;;17.20;68.10;;;;;;5053097;28;20132;-86
2022/05/19 02:51:01;;;;;;;27.77;24.75;;;17.20;68.30;;;;;;5052569;28;20492;-83
2022/05/19 02:53:27;;;;;;;32.38;27.55;;;17.10;68.30;;;;;;5052338;28;20041;-85
2022/05/19 02:55:53;;;;;;;27.67;24.63;;;17.10;68.40;;;;;;5017798;28;20049;-85
2022/05/19 02:58:18;;;;;;;23.15;20.55;;;17.10;68.60;;;;;;5056866;28;20063;-85
2022/05/19 03:00:47;;;;;;;21.73;15.50;;;17.10;68.40;;;;;;5053313;28;20041;-85
2022/05/19 03:03:13;;;;;;;18.50;16.27;;;17.10;68.10;;;;;;5050680;28;20060;-85
2022/05/19 03:05:40;;;;;;;19.20;17.13;;;17.10;67.80;;;;;;5051511;28;20492;-85
2022/05/19 03:08:07;;;;;;;18.40;14.88;;;17.10;67.50;;;;;;5052542;28;20047;-85
2022/05/19 03:10:35;;;;;;;24.20;21.02;;;17.20;67.30;;;;;;5066913;28;20052;-85
2022/05/19 03:13:01;;;;;;;35.65;29.23;;;17.20;67.30;;;;;;5072123;28;20048;-85
2022/05/19 03:15:27;;;;;;;32.80;29.13;;;17.20;67.60;;;;;;5055102;28;20419;-85
2022/05/19 03:17:53;;;;;;;35.78;29.95;;;17.30;68.00;;;;;;5073710;28;20067;-84
2022/05/19 03:20:20;;;;;;;39.03;29.45;;;17.20;68.20;;;;;;5073132;28;20044;-85
2022/05/19 03:22:46;;;;;;;29.30;24.13;;;17.30;68.40;;;;;;5071805;28;20036;-84
2022/05/19 03:25:12;;;;;;;35.05;31.13;;;17.20;68.40;;;;;;5073125;28;20086;-86
2022/05/19 03:27:38;;;;;;;34.08;28.50;;;17.20;68.60;;;;;;5072434;28;20445;-85
2022/05/19 03:30:07;;;;;;;36.75;31.40;;;17.20;68.70;;;;;;5074093;28;20470;-83
2022/05/19 03:32:33;;;;;;;41.58;33.65;;;17.20;68.90;;;;;;5072545;28;20090;-83
2022/05/19 03:34:59;;;;;;;38.15;34.00;;;17.20;69.00;;;;;;5072720;28;20056;-83
2022/05/19 03:37:25;;;;;;;39.95;34.35;;;17.10;69.20;;;;;;5072320;28;20036;-84
2022/05/19 03:39:51;;;;;;;40.53;34.47;;;17.10;69.40;;;;;;5056166;28;20052;-84
2022/05/19 03:42:17;;;;;;;40.83;34.88;;;17.10;69.60;;;;;;5054751;28;20510;-84
2022/05/19 03:44:42;;;;;;;41.10;35.50;;;17.00;69.90;;;;;;5073810;28;20128;-83
2022/05/19 03:47:08;;;;;;;44.90;37.85;;;17.00;70.00;;;;;;5058324;28;20123;-82
2022/05/19 03:49:34;;;;;;;42.70;35.63;;;16.90;70.20;;;;;;5059789;28;20044;-83
2022/05/19 03:52:00;;;;;;;46.65;38.10;;;16.90;70.40;;;;;;5075837;28;20039;-83
2022/05/19 03:54:26;;;;;;;45.67;38.25;;;16.80;70.70;;;;;;5059049;28;20063;-84
2022/05/19 03:56:52;;;;;;;42.42;37.80;;;16.80;70.90;;;;;;5076191;28;20033;-82
2022/05/19 03:59:17;;;;;;;47.08;38.75;;;16.70;71.10;;;;;;5057213;28;20090;-83
2022/05/19 04:01:43;;;;;;;46.78;38.75;;;16.70;71.20;;;;;;5076533;28;20086;-84
2022/05/19 04:04:09;;;;;;;45.40;37.65;;;16.60;71.30;;;;;;5084079;28;20044;-83
2022/05/19 04:06:35;;;;;;;49.78;39.97;;;16.60;71.60;;;;;;5060742;28;20036;-84
2022/05/19 04:09:03;;;;;;;45.70;40.25;;;16.50;71.70;;;;;;5075407;28;20040;-84
2022/05/19 04:11:29;;;;;;;45.65;39.53;;;16.50;71.90;;;;;;5058733;28;20369;-83
2022/05/19 04:13:55;;;;;;;50.35;40.70;;;16.50;72.00;;;;;;5076985;28;20074;-84
2022/05/19 04:16:20;;;;;;;50.05;40.25;;;16.50;72.20;;;;;;5076170;28;20053;-83
2022/05/19 04:18:46;;;;;;;44.90;39.67;;;16.50;72.30;;;;;;5075433;28;20039;-84
2022/05/19 04:21:12;;;;;;;44.25;36.65;;;16.50;72.40;;;;;;5076246;28;20169;-84
2022/05/19 04:23:38;;;;;;;42.05;36.85;;;16.50;72.90;;;;;;5074684;28;20059;-84
2022/05/19 04:26:03;;;;;;;45.30;40.15;;;16.50;72.40;;;;;;5077067;28;20044;-83
2022/05/19 04:28:29;;;;;;;48.85;40.05;;;16.60;72.70;;;;;;5075114;28;20033;-84
2022/05/19 04:30:56;;;;;;;44.85;38.63;;;16.60;72.70;;;;;;5076200;28;20045;-84
2022/05/19 04:33:21;;;;;;;43.33;38.33;;;16.70;72.80;;;;;;5075167;28;20057;-84
2022/05/19 04:35:47;;;;;;;41.17;36.40;;;16.70;73.00;;;;;;5059185;28;20422;-83
2022/05/19 04:38:15;;;;;;;36.00;32.17;;;16.80;73.00;;;;;;5057056;28;20472;-83
2022/05/19 04:40:44;;;;;;;39.85;35.22;;;16.80;72.90;;;;;;5057538;28;20051;-83
2022/05/19 04:43:10;;;;;;;41.28;36.45;;;16.80;72.90;;;;;;5074509;28;20455;-83
2022/05/19 04:45:35;;;;;;;39.45;32.85;;;16.90;73.00;;;;;;5057545;28;20090;-83
2022/05/19 04:48:01;;;;;;;36.20;32.30;;;17.00;73.00;;;;;;5069997;28;20068;-83
2022/05/19 04:50:27;;;;;;;38.88;34.78;;;17.00;72.70;;;;;;5057103;28;20426;-82
2022/05/19 04:52:57;;;;;;;39.55;34.28;;;17.10;72.80;;;;;;5057375;28;20032;-83
2022/05/19 04:55:23;;;;;;;35.13;31.63;;;17.10;73.00;;;;;;5057059;28;20044;-82
2022/05/19 04:57:48;;;;;;;39.60;35.30;;;17.20;72.80;;;;;;5085108;28;20048;-82
2022/05/19 05:00:15;;;;;;;36.40;32.58;;;17.20;72.90;;;;;;5091288;28;20051;-83
2022/05/19 05:02:41;;;;;;;32.22;28.80;;;17.30;72.80;;;;;;5057324;28;20041;-84
2022/05/19 05:05:07;;;;;;;35.58;31.88;;;17.30;72.70;;;;;;5079870;28;20381;-83
2022/05/19 05:07:33;;;;;;;34.00;30.58;;;17.40;72.80;;;;;;5084606;28;20124;-83
2022/05/19 05:09:59;;;;;;;34.22;30.33;;;17.40;72.80;;;;;;5051521;28;20055;-83
2022/05/19 05:12:24;;;;;;;32.72;29.20;;;17.60;72.90;;;;;;5050157;28;20045;-83
2022/05/19 05:14:51;;;;;;;31.15;27.83;;;17.60;72.90;;;;;;5083311;28;20076;-85
2022/05/19 05:17:17;;;;;;;28.42;25.52;;;17.70;72.90;;;;;;5059565;28;20082;-83
2022/05/19 05:19:43;;;;;;;29.23;26.13;;;17.80;72.60;;;;;;5090870;28;20040;-83
2022/05/19 05:22:08;;;;;;;28.33;25.33;;;17.80;72.90;;;;;;5065234;28;20426;-83
2022/05/19 05:24:34;;;;;;;26.63;23.77;;;17.90;72.70;;;;;;5050520;28;20052;-85
2022/05/19 05:27:03;;;;;;;25.73;22.85;;;18.00;72.00;;;;;;5094400;28;20092;-82
2022/05/19 05:29:28;;;;;;;23.35;20.48;;;18.10;71.90;;;;;;5039965;28;20060;-84
2022/05/19 05:31:54;;;;;;;26.17;23.42;;;18.10;71.40;;;;;;5056505;28;20052;-84
2022/05/19 05:34:20;;;;;;;22.90;18.65;;;18.20;71.40;;;;;;5039628;28;20510;-84
2022/05/19 05:36:46;;;;;;;20.92;18.73;;;18.30;70.90;;;;;;5075019;28;20043;-84
2022/05/19 05:39:11;;;;;;;20.35;18.10;;;18.40;70.60;;;;;;5055922;28;20036;-83
2022/05/19 05:41:37;;;;;;;17.30;15.27;;;18.40;70.50;;;;;;5056422;28;20135;-85
2022/05/19 05:44:03;;;;;;;16.08;14.48;;;18.50;70.30;;;;;;5055981;28;20036;-83
2022/05/19 05:46:28;;;;;;;14.88;13.27;;;18.60;70.00;;;;;;5057280;28;20074;-84
2022/05/19 05:48:54;;;;;;;14.73;12.30;;;18.60;70.00;;;;;;5073847;28;20055;-83
2022/05/19 05:51:19;;;;;;;13.57;11.82;;;18.70;69.50;;;;;;5074092;28;20071;-83
2022/05/19 05:53:46;;;;;;;12.20;9.60;;;18.80;69.50;;;;;;5055269;28;20397;-83
2022/05/19 05:56:14;;;;;;;10.68;9.20;;;18.80;69.60;;;;;;5074073;28;20464;-82
2022/05/19 05:58:40;;;;;;;9.02;6.88;;;18.90;69.60;;;;;;5074399;28;20495;-83
2022/05/19 06:01:08;;;;;;;5.25;4.65;;;18.90;69.30;;;;;;5074196;28;20032;-83
2022/05/19 06:03:34;;;;;;;7.78;4.60;;;19.00;69.40;;;;;;5073630;28;20049;-83
2022/05/19 06:06:01;;;;;;;7.25;4.35;;;19.00;69.50;;;;;;5056050;28;20048;-84
2022/05/19 06:08:27;;;;;;;6.70;3.38;;;19.10;69.40;;;;;;5073833;28;20189;-83
2022/05/19 06:10:53;;;;;;;9.38;4.25;;;19.20;69.30;;;;;;5073195;28;20048;-83
2022/05/19 06:13:19;;;;;;;6.25;3.30;;;19.30;69.10;;;;;;5073995;28;20052;-83
2022/05/19 06:15:46;;;;;;;6.70;3.47;;;19.30;68.80;;;;;;5073791;28;20045;-83
2022/05/19 06:18:12;;;;;;;5.47;3.45;;;19.30;68.80;;;;;;5056660;28;20127;-86
2022/05/19 06:20:39;;;;;;;7.15;3.75;;;19.40;68.80;;;;;;5073586;28;20048;-82
2022/05/19 06:23:06;;;;;;;5.95;4.32;;;19.40;69.40;;;;;;5039322;28;20131;-82
2022/05/19 06:25:32;;;;;;;42.88;11.75;;;19.50;69.40;;;;;;5072925;28;20484;-82
2022/05/19 06:28:00;;;;;;;9.60;4.35;;;19.50;69.50;;;;;;5073977;28;20106;-82
2022/05/19 06:30:28;;;;;;;8.20;4.63;;;19.50;69.50;;;;;;5056389;28;20044;-83
2022/05/19 06:32:53;;;;;;;5.68;4.00;;;19.40;69.60;;;;;;5074002;28;20115;-82
2022/05/19 06:35:24;;;;;;;10.50;5.40;;;19.40;69.40;;;;;;5073407;28;20144;-83
2022/05/19 06:37:49;;;;;;;10.25;5.03;;;19.40;69.70;;;;;;5054945;28;20563;-83
2022/05/19 06:40:16;;;;;;;6.38;4.50;;;19.50;69.70;;;;;;5074074;28;20124;-83
2022/05/19 06:42:43;;;;;;;6.55;4.60;;;19.50;69.70;;;;;;5073534;28;20062;-83
2022/05/19 06:45:11;;;;;;;9.60;5.78;;;19.50;70.00;;;;;;5073573;28;20050;-83
2022/05/19 06:47:36;;;;;;;6.88;5.38;;;19.50;70.20;;;;;;5073792;28;20449;-83
2022/05/19 06:50:04;;;;;;;8.50;5.72;;;19.50;70.70;;;;;;5056425;28;20119;-83
2022/05/19 06:52:32;;;;;;;9.43;6.00;;;19.60;71.10;;;;;;5074713;28;20041;-83
2022/05/19 06:55:00;;;;;;;9.50;6.68;;;19.60;71.60;;;;;;5073155;28;20153;-83
2022/05/19 06:57:28;;;;;;;47.72;12.63;;;19.60;71.60;;;;;;5055774;28;20547;-83
2022/05/19 06:59:54;;;;;;;12.77;6.00;;;19.60;71.50;;;;;;5073333;28;20101;-83
2022/05/19 07:02:22;;;;;;;8.38;5.65;;;19.60;71.20;;;;;;5065966;28;20532;-83
2022/05/19 07:04:48;;;;;;;7.25;5.38;;;19.60;71.30;;;;;;5055238;28;20486;-83
2022/05/19 07:07:14;;;;;;;8.35;5.80;;;19.60;71.30;;;;;;5055609;28;20037;-83
2022/05/19 07:09:40;;;;;;;5.68;4.47;;;19.70;71.50;;;;;;5055014;28;20495;-83
2022/05/19 07:12:09;;;;;;;5.38;3.80;;;19.70;71.40;;;;;;5054942;28;20052;-83
2022/05/19 07:14:35;;;;;;;8.15;5.15;;;19.70;71.10;;;;;;5073594;28;20044;-83
2022/05/19 07:17:01;;;;;;;6.47;5.72;;;19.70;71.40;;;;;;5073257;28;20044;-83
2022/05/19 07:22:17;;;;;;;10.00;5.97;;;19.70;71.00;;;;;;5077738;28;20116;-83
2022/05/19 07:24:43;;;;;;;8.77;7.10;;;19.80;70.70;;;;;;5077043;28;20051;-82
2022/05/19 07:27:09;;;;;;;13.07;8.88;;;19.80;71.20;;;;;;5058962;28;20391;-83
2022/05/19 07:29:35;;;;;;;13.75;9.93;;;19.80;71.50;;;;;;5059007;28;20044;-82
2022/05/19 07:32:01;;;;;;;13.55;9.02;;;19.80;71.80;;;;;;5058649;28;20052;-82
2022/05/19 07:34:29;;;;;;;13.95;12.48;;;19.80;71.70;;;;;;5075840;28;20088;-83
2022/05/19 07:36:55;;;;;;;14.80;12.18;;;19.80;72.00;;;;;;5076302;28;20450;-83
2022/05/19 07:39:22;;;;;;;16.95;12.60;;;19.80;71.90;;;;;;5059148;28;20127;-83
2022/05/19 07:41:47;;;;;;;15.38;13.30;;;19.80;71.90;;;;;;5058101;28;20052;-83
2022/05/19 07:44:13;;;;;;;14.95;13.32;;;19.80;71.60;;;;;;5060008;28;20045;-83
2022/05/19 07:46:39;;;;;;;14.07;11.60;;;19.80;71.60;;;;;;5076438;28;20040;-83
2022/05/19 07:49:07;;;;;;;15.48;11.95;;;19.80;71.70;;;;;;5058531;28;20041;-82
2022/05/19 07:51:39;;;;;;;15.35;13.68;;;19.70;71.80;;;;;;5058126;28;20460;-82
2022/05/19 07:54:11;;;;;;;14.88;12.50;;;19.80;71.70;;;;;;5077724;28;20062;-83
2022/05/19 07:56:38;;;;;;;13.13;11.27;;;19.70;71.60;;;;;;5076243;28;20037;-82
2022/05/19 07:59:04;;;;;;;15.43;12.98;;;19.60;71.80;;;;;;5076397;28;20043;-82
2022/05/19 08:01:30;;;;;;;14.32;12.82;;;19.60;71.70;;;;;;5057411;28;20488;-82
2022/05/19 08:03:57;;;;;;;14.57;12.38;;;19.60;71.60;;;;;;5074864;28;20043;-82
2022/05/19 08:06:23;;;;;;;43.80;18.35;;;19.60;72.10;;;;;;5077081;28;20197;-83
2022/05/19 08:08:48;;;;;;;15.85;12.50;;;19.60;71.90;;;;;;5076284;28;20123;-83
2022/05/19 08:11:14;;;;;;;15.35;13.00;;;19.60;72.20;;;;;;5057562;28;20057;-82
2022/05/19 08:16:38;;;;;;;15.30;12.02;;;19.60;72.40;;;;;;4995913;28;20453;-81
2022/05/19 08:19:04;;;;;;;17.27;12.98;;;19.60;72.30;;;;;;4996081;28;20050;-81
2022/05/19 08:21:31;;;;;;;14.63;12.13;;;19.60;72.50;;;;;;4995979;28;20518;-81
2022/05/19 08:23:57;;;;;;;14.45;12.18;;;19.60;72.80;;;;;;5008749;28;20042;-82
2022/05/19 08:26:23;;;;;;;135.02;29.52;;;19.50;72.80;;;;;;4995069;28;20416;-82
2022/05/19 08:28:50;;;;;;;18.02;12.23;;;19.60;72.80;;;;;;4978590;28;20050;-81
2022/05/19 08:31:20;;;;;;;12.45;9.85;;;19.60;72.60;;;;;;4993641;28;20053;-81
2022/05/19 08:33:47;;;;;;;17.55;11.48;;;19.70;72.30;;;;;;4995221;28;20050;-80
2022/05/19 08:36:13;;;;;;;14.50;9.57;;;19.70;72.00;;;;;;4981566;28;20050;-80
2022/05/19 08:38:40;;;;;;;13.57;9.95;;;19.70;72.10;;;;;;5009581;28;20383;-80
2022/05/19 08:41:07;;;;;;;10.95;9.05;;;19.80;71.90;;;;;;4997428;28;20088;-82
2022/05/19 08:43:48;;;;;;;10.20;8.90;;;19.80;72.00;;;;;;4995419;28;20046;-83
2022/05/19 08:46:32;;;;;;;12.30;9.75;;;19.90;71.60;;;;;;4997135;28;20054;-83
2022/05/19 08:49:21;;;;;;;10.88;8.82;;;20.00;71.80;;;;;;4994296;28;20085;-83
2022/05/19 08:52:00;;;;;;;13.48;9.52;;;20.10;71.60;;;;;;5000023;28;20057;-82
2022/05/19 08:54:25;;;;;;;12.40;9.35;;;20.10;72.10;;;;;;5057419;28;20103;-83
2022/05/19 08:57:16;;;;;;;17.45;10.02;;;20.20;72.00;;;;;;5056136;28;21304;-83
2022/05/19 09:00:15;;;;;;;11.35;9.80;;;20.20;72.00;;;;;;5075246;28;20482;-82
2022/05/19 09:02:56;;;;;;;13.48;9.32;;;20.40;71.60;;;;;;5074890;28;20053;-83
2022/05/19 09:05:46;;;;;;;12.02;10.07;;;20.40;71.10;;;;;;5074993;28;20128;-83
2022/05/19 09:08:36;;;;;;;10.80;8.00;;;20.50;70.80;;;;;;5074896;28;20040;-83
2022/05/19 09:11:21;;;;;;;11.50;8.48;;;20.60;70.30;;;;;;5056845;28;20048;-83
2022/05/19 09:13:53;;;;;;;9.20;7.72;;;20.70;70.20;;;;;;5074606;28;20053;-83
2022/05/19 09:16:20;;;;;;;8.75;7.60;;;20.80;70.20;;;;;;5056854;28;20425;-84
2022/05/19 09:19:17;;;;;;;13.20;8.25;;;20.80;70.10;;;;;;5074639;28;20050;-83
2022/05/19 09:21:44;;;;;;;9.57;7.45;;;21.00;69.60;;;;;;4970660;28;20507;-84
2022/05/19 09:24:11;;;;;;;9.35;7.25;;;21.10;69.30;;;;;;4955615;28;20140;-85
2022/05/19 09:26:52;;;;;;;9.45;7.90;;;21.20;68.40;;;;;;4954665;29;20063;-83
2022/05/19 09:29:42;;;;;;;10.32;7.53;;;21.30;68.00;;;;;;4955960;28;20043;-81
2022/05/19 09:32:15;;;;;;;11.35;7.65;;;21.40;68.00;;;;;;4897281;29;20056;-82
2022/05/19 09:34:45;;;;;;;8.68;7.13;;;21.50;67.80;;;;;;4908734;29;20500;-82
2022/05/19 09:37:17;;;;;;;11.27;6.85;;;21.60;67.80;;;;;;4915409;29;20057;-82
2022/05/19 09:39:58;;;;;;;9.25;7.05;;;21.80;66.60;;;;;;4916204;29;20421;-81
2022/05/19 09:42:35;;;;;;;9.68;6.80;;;21.90;66.20;;;;;;4915992;29;20507;-82
2022/05/19 09:45:00;;;;;;;6.85;5.47;;;22.00;65.30;;;;;;4915546;29;20160;-84
2022/05/19 09:47:33;;;;;;;7.90;6.40;;;22.10;65.70;;;;;;4915741;29;20123;-83
2022/05/19 09:50:14;;;;;;;7.57;6.63;;;22.20;65.40;;;;;;4915965;29;20104;-83
2022/05/19 09:52:43;;;;;;;10.05;7.22;;;22.30;64.10;;;;;;4915324;29;20056;-82
2022/05/19 09:55:11;;;;;;;10.68;6.32;;;22.40;64.40;;;;;;4915653;29;20510;-82
2022/05/19 09:57:44;;;;;;;8.60;7.70;;;22.50;64.70;;;;;;4934438;28;20048;-82
2022/05/19 10:00:31;;;;;;;11.27;8.13;;;22.60;64.40;;;;;;5032267;28;20056;-79
2022/05/19 10:02:59;;;;;;;9.00;6.63;;;22.80;63.30;;;;;;4973315;28;20051;-80
2022/05/19 10:05:38;;;;;;;8.02;6.43;;;22.80;63.30;;;;;;4963014;28;20055;-80
2022/05/19 10:08:14;;;;;;;8.10;6.45;;;22.90;62.50;;;;;;4935833;29;20067;-80
2022/05/19 10:10:55;;;;;;;6.90;6.07;;;23.00;62.00;;;;;;4968795;28;20065;-79
2022/05/19 10:13:36;;;;;;;7.20;6.45;;;23.00;61.60;;;;;;4972874;28;20483;-80
2022/05/19 10:16:27;;;;;;;8.43;6.60;;;23.10;61.60;;;;;;4962353;28;20061;-79
2022/05/19 10:19:00;;;;;;;7.88;6.32;;;23.10;61.00;;;;;;4973657;28;20050;-79
2022/05/19 10:21:52;;;;;;;8.05;5.45;;;23.10;60.70;;;;;;4973131;28;20058;-80
2022/05/19 10:24:51;;;;;;;6.88;4.78;;;23.10;60.90;;;;;;4953659;29;20543;-79
2022/05/19 10:33:25;;;;;;;8.88;5.68;;;23.00;60.20;;;;;;4973286;28;20129;-81
2022/05/19 10:36:15;;;;;;;6.10;4.10;;;23.00;60.50;;;;;;4978653;28;20046;-80
2022/05/19 10:39:01;;;;;;;6.43;3.42;;;23.00;60.00;;;;;;4974298;28;20055;-80
2022/05/19 10:41:57;;;;;;;7.25;4.70;;;23.00;60.10;;;;;;5061331;28;20044;-80
2022/05/19 10:44:56;;;;;;;5.15;4.20;;;23.00;60.80;;;;;;5075409;28;20079;-81
2022/05/19 10:47:45;;;;;;;5.85;4.85;;;22.90;59.90;;;;;;5079229;28;20123;-81
2022/05/19 10:50:13;;;;;;;7.35;4.75;;;22.90;60.10;;;;;;5054215;28;20043;-80
2022/05/19 10:52:59;;;;;;;5.70;4.57;;;22.90;60.10;;;;;;5073784;28;20126;-80
2022/05/19 10:56:00;;;;;;;6.78;5.05;;;23.00;60.20;;;;;;5059421;28;20083;-81
2022/05/19 10:59:03;;;;;;;6.93;5.65;;;23.10;60.30;;;;;;5077353;28;20381;-80
2022/05/19 11:01:37;;;;;;;7.82;6.65;;;23.30;60.50;;;;;;5077014;28;20361;-80
2022/05/19 11:04:33;;;;;;;8.55;6.80;;;23.40;59.80;;;;;;5059370;28;20048;-81
2022/05/19 11:07:10;;;;;;;8.20;6.15;;;23.50;59.30;;;;;;5059686;28;20441;-82
2022/05/19 11:09:58;;;;;;;8.23;5.32;;;23.60;59.90;;;;;;5058127;28;20403;-81
2022/05/19 11:12:35;;;;;;;8.25;6.57;;;23.80;59.40;;;;;;5059497;28;20079;-81
2022/05/19 11:15:02;;;;;;;7.47;6.78;;;24.00;59.40;;;;;;5069225;28;20090;-81
2022/05/19 11:17:38;;;;;;;7.18;6.43;;;24.20;59.30;;;;;;5076968;28;20071;-80
2022/05/19 11:20:19;;;;;;;7.88;6.63;;;24.40;58.40;;;;;;5077715;28;20110;-81
2022/05/19 11:22:48;;;;;;;8.93;6.15;;;24.50;58.10;;;;;;5076761;28;20041;-82
2022/05/19 11:28:27;;;;;;;15.45;7.53;;;24.80;57.00;;;;;;5091992;28;20398;-83
2022/05/19 11:30:58;;;;;;;7.30;5.22;;;24.90;56.60;;;;;;5078208;28;20067;-84
2022/05/19 11:33:30;;;;;;;7.22;5.05;;;25.10;56.30;;;;;;5082898;28;20116;-85
2022/05/19 11:36:05;;;;;;;7.68;5.32;;;25.20;56.00;;;;;;5080544;28;20040;-86
2022/05/19 11:38:56;;;;;;;7.75;4.55;;;25.30;55.90;;;;;;5076574;28;20411;-85
2022/05/19 11:41:25;;;;;;;5.82;4.30;;;25.50;55.70;;;;;;5078158;28;20076;-85
2022/05/19 11:43:59;;;;;;;5.22;3.88;;;25.60;55.00;;;;;;5058304;28;20045;-86
2022/05/19 11:46:37;;;;;;;3.55;3.05;;;25.60;53.80;;;;;;5076133;28;20078;-84
2022/05/19 11:55:30;;;;;;;4.20;3.10;;;26.00;53.60;;;;;;4974667;28;20521;-86
2022/05/19 11:58:04;;;;;;;3.90;2.75;;;26.00;52.90;;;;;;4957739;28;20043;-87
2022/05/19 12:00:36;;;;;;;4.07;3.17;;;26.10;52.10;;;;;;4946197;28;20526;-85
2022/05/19 12:03:14;;;;;;;3.22;2.67;;;26.10;51.70;;;;;;4976472;28;20057;-85
2022/05/19 12:05:57;;;;;;;2.30;1.90;;;26.10;51.30;;;;;;4965260;28;20555;-85
2022/05/19 12:08:28;;;;;;;2.88;2.17;;;26.10;52.10;;;;;;4968352;28;20043;-83
2022/05/19 12:11:08;;;;;;;2.80;2.28;;;26.20;52.50;;;;;;4972062;28;20050;-82
2022/05/19 12:13:36;;;;;;;3.38;2.20;;;26.20;52.30;;;;;;4965631;28;20507;-82
2022/05/19 12:16:14;;;;;;;2.97;2.25;;;26.30;52.10;;;;;;4944318;29;20419;-83
2022/05/19 12:19:00;;;;;;;3.55;2.22;;;26.30;52.10;;;;;;4956553;29;20059;-84
2022/05/19 12:21:31;;;;;;;4.43;2.40;;;26.30;51.70;;;;;;4971696;28;20129;-83
2022/05/19 12:24:03;;;;;;;3.33;2.08;;;26.40;51.50;;;;;;4950839;29;20491;-83
2022/05/19 12:26:37;;;;;;;3.40;2.20;;;26.40;52.00;;;;;;4970625;28;20058;-84
2022/05/19 12:29:04;;;;;;;3.58;2.25;;;26.40;52.70;;;;;;4956116;28;20583;-84
2022/05/19 12:34:35;;;;;;;2.30;1.95;;;26.50;53.20;;;;;;5017257;28;20049;-84
2022/05/19 12:37:36;;;;;;;2.67;2.20;;;26.50;53.20;;;;;;5005372;28;20058;-85
2022/05/19 12:40:28;;;;;;;2.60;2.15;;;26.50;53.40;;;;;;5021035;28;20073;-84
2022/05/19 12:43:12;;;;;;;5.13;2.60;;;26.50;53.90;;;;;;5026219;28;20053;-84
2022/05/19 12:45:43;;;;;;;6.38;2.63;;;26.50;54.20;;;;;;5008614;28;20084;-83
2022/05/19 12:48:11;;;;;;;9.63;3.42;;;26.40;54.40;;;;;;5029993;28;20519;-84
2022/05/19 12:50:42;;;;;;;8.95;4.20;;;26.20;54.90;;;;;;5008243;28;20062;-82
2022/05/19 12:53:13;;;;;;;7.15;5.28;;;26.00;55.80;;;;;;5024229;28;20221;-82
2022/05/19 12:55:42;;;;;;;10.95;5.85;;;25.70;56.70;;;;;;5017097;28;20053;-81
2022/05/19 12:58:47;;;;;;;9.73;6.63;;;25.40;57.50;;;;;;5001630;28;20383;-82
2022/05/19 13:01:21;;;;;;;8.95;5.68;;;24.90;58.10;;;;;;4932688;28;20051;-81
2022/05/19 13:04:14;;;;;;;11.60;5.60;;;24.40;59.00;;;;;;4958090;28;20111;-81
2022/05/19 13:06:51;;;;;;;12.73;6.47;;;23.90;60.10;;;;;;4937057;29;20186;-84
2022/05/19 13:09:25;;;;;;;14.80;6.63;;;23.30;61.30;;;;;;4959748;28;20104;-82
2022/05/19 13:11:55;;;;;;;9.68;5.15;;;22.90;62.50;;;;;;4972614;28;20603;-82
2022/05/19 13:14:34;;;;;;;6.55;3.85;;;22.50;63.40;;;;;;4984649;28;20061;-82
2022/05/19 13:17:05;;;;;;;5.43;3.08;;;22.20;64.00;;;;;;4984195;28;20737;-82
2022/05/19 13:19:35;;;;;;;6.88;3.42;;;21.90;64.40;;;;;;4967104;28;20494;-82
2022/05/19 13:22:07;;;;;;;5.82;3.13;;;21.60;64.80;;;;;;4981611;28;20054;-81